createdAt,value
2022-09-28T00:00:33.577Z,8.40
2022-09-28T00:03:01.037Z,8.30
2022-09-28T00:05:28.807Z,8.30
2022-09-28T00:07:56.877Z,8.30
2022-09-28T00:10:24.609Z,8.20
2022-09-28T00:12:52.266Z,8.10
2022-09-28T00:15:20.097Z,8.10
2022-09-28T00:17:47.521Z,7.90
2022-09-28T00:20:16.726Z,7.80
2022-09-28T00:22:44.003Z,7.80
2022-09-28T00:25:12.213Z,7.70
2022-09-28T00:27:40.340Z,7.80
2022-09-28T00:30:08.304Z,7.70
2022-09-28T00:32:36.104Z,7.80
2022-09-28T00:35:03.670Z,7.80
2022-09-28T00:37:31.100Z,7.90
2022-09-28T00:39:58.925Z,7.90
2022-09-28T00:42:26.762Z,7.90
2022-09-28T00:44:55.250Z,7.90
2022-09-28T00:47:41.955Z,7.90
2022-09-28T00:50:10.107Z,7.90
2022-09-28T00:52:57.817Z,7.90
2022-09-28T00:55:35.990Z,7.90
2022-09-28T00:58:05.467Z,7.80
2022-09-28T01:00:33.061Z,7.60
2022-09-28T01:03:00.703Z,7.60
2022-09-28T01:05:28.335Z,7.60
2022-09-28T01:07:56.378Z,7.70
2022-09-28T01:10:24.409Z,7.70
2022-09-28T01:12:51.860Z,7.70
2022-09-28T01:15:22.230Z,7.70
2022-09-28T01:17:52.755Z,7.70
2022-09-28T01:20:32.667Z,7.70
2022-09-28T01:23:17.691Z,7.70
2022-09-28T01:25:55.749Z,7.70
2022-09-28T01:28:28.565Z,7.60
2022-09-28T01:30:56.218Z,7.50
2022-09-28T01:33:27.395Z,7.40
2022-09-28T01:36:02.814Z,7.40
2022-09-28T01:38:34.115Z,7.40
2022-09-28T01:41:03.639Z,7.40
2022-09-28T01:43:32.893Z,7.50
2022-09-28T01:46:08.430Z,7.40
2022-09-28T01:48:39.461Z,7.20
2022-09-28T01:51:11.206Z,7.40
2022-09-28T01:53:43.718Z,7.30
2022-09-28T01:56:23.307Z,7.40
2022-09-28T01:58:56.556Z,7.40
2022-09-28T02:01:29.426Z,7.20
2022-09-28T02:04:12.453Z,7.30
2022-09-28T02:06:52.447Z,7.40
2022-09-28T02:09:23.579Z,7.20
2022-09-28T02:11:55.277Z,7.30
2022-09-28T02:14:23.505Z,7.40
2022-09-28T02:16:54.703Z,7.50
2022-09-28T02:19:28.458Z,7.40
2022-09-28T02:22:03.555Z,7.50
2022-09-28T02:24:37.902Z,7.50
2022-09-28T02:27:15.410Z,7.50
2022-09-28T02:29:43.127Z,7.40
2022-09-28T02:32:10.800Z,7.50
2022-09-28T02:34:38.175Z,7.40
2022-09-28T02:37:07.076Z,7.30
2022-09-28T02:39:34.357Z,7.30
2022-09-28T02:42:02.646Z,7.30
2022-09-28T02:44:40.118Z,7.30
2022-09-28T02:47:10.913Z,7.40
2022-09-28T02:49:41.506Z,7.40
2022-09-28T02:52:15.602Z,7.30
2022-09-28T02:54:52.625Z,7.40
2022-09-28T02:57:31.639Z,7.40
2022-09-28T03:00:08.165Z,7.40
2022-09-28T03:02:51.423Z,7.30
2022-09-28T03:05:38.164Z,7.20
2022-09-28T03:08:25.817Z,7.10
2022-09-28T03:10:59.541Z,7.10
2022-09-28T03:13:28.566Z,7.10
2022-09-28T03:16:15.983Z,7.10
2022-09-28T03:18:45.908Z,7.20
2022-09-28T03:21:14.049Z,7.30
2022-09-28T03:23:42.212Z,7.40
2022-09-28T03:26:13.088Z,7.30
2022-09-28T03:28:40.661Z,7.20
2022-09-28T03:31:12.133Z,7.10
2022-09-28T03:33:39.564Z,7.10
2022-09-28T03:36:09.186Z,7.20
2022-09-28T03:38:38.179Z,7.20
2022-09-28T03:41:08.068Z,7.30
2022-09-28T03:43:37.805Z,7.20
2022-09-28T03:46:06.108Z,7.20
2022-09-28T03:48:39.998Z,7.10
2022-09-28T03:51:10.546Z,7.00
2022-09-28T03:53:39.885Z,7.10
2022-09-28T03:56:09.145Z,7.10
2022-09-28T03:58:36.898Z,7.10
2022-09-28T04:01:14.174Z,7.10
2022-09-28T04:03:45.830Z,7.10
2022-09-28T04:06:13.815Z,7.00
2022-09-28T04:08:41.200Z,6.90
2022-09-28T04:11:09.850Z,7.00
2022-09-28T04:13:37.470Z,7.00
2022-09-28T04:16:07.754Z,7.10
2022-09-28T04:18:36.923Z,7.00
2022-09-28T04:21:42.714Z,7.10
2022-09-28T04:24:13.553Z,6.90
2022-09-28T04:26:41.230Z,6.90
2022-09-28T04:29:16.767Z,7.00
2022-09-28T04:31:56.159Z,7.10
2022-09-28T04:34:44.555Z,7.10
2022-09-28T04:37:12.809Z,7.20
2022-09-28T04:39:45.017Z,7.20
2022-09-28T04:42:17.582Z,7.20
2022-09-28T04:44:45.411Z,7.10
2022-09-28T04:47:13.595Z,7.20
2022-09-28T04:49:59.491Z,7.10
2022-09-28T04:52:35.902Z,7.10
2022-09-28T04:55:03.945Z,7.10
2022-09-28T04:57:34.184Z,7.10
2022-09-28T05:00:01.997Z,7.10
2022-09-28T05:02:31.830Z,7.30
2022-09-28T05:05:18.198Z,7.20
2022-09-28T05:08:05.093Z,7.20
2022-09-28T05:10:32.586Z,7.20
2022-09-28T05:13:01.555Z,7.10
2022-09-28T05:15:29.384Z,7.20
2022-09-28T05:17:56.817Z,7.30
2022-09-28T05:20:48.160Z,7.30
2022-09-28T05:23:15.739Z,7.20
2022-09-28T05:25:45.495Z,7.40
2022-09-28T05:28:27.292Z,7.40
2022-09-28T05:31:13.590Z,7.50
2022-09-28T05:34:13.155Z,7.30
2022-09-28T05:36:42.836Z,7.40
2022-09-28T05:39:10.379Z,7.50
2022-09-28T05:41:38.048Z,7.40
2022-09-28T05:44:06.086Z,7.60
2022-09-28T05:46:35.227Z,7.80
2022-09-28T05:49:02.870Z,7.90
2022-09-28T05:51:30.422Z,8.20
2022-09-28T05:54:01.846Z,8.30
2022-09-28T05:56:33.071Z,8.50
2022-09-28T05:59:05.545Z,8.80
2022-09-28T06:01:33.022Z,9.00
2022-09-28T06:04:02.219Z,9.00
2022-09-28T06:06:30.033Z,9.30
2022-09-28T06:08:57.563Z,9.50
2022-09-28T06:11:42.245Z,9.50
2022-09-28T06:14:19.270Z,9.40
2022-09-28T06:16:47.447Z,14.30
2022-09-28T06:19:15.058Z,14.90
2022-09-28T06:21:53.685Z,15.70
2022-09-28T06:24:21.555Z,15.20
2022-09-28T06:26:49.068Z,18.30
2022-09-28T06:29:19.862Z,21.30
2022-09-28T06:31:48.226Z,22.20
2022-09-28T06:34:16.169Z,24.10
2022-09-28T06:36:45.388Z,25.10
2022-09-28T06:39:12.939Z,24.90
2022-09-28T06:41:41.566Z,26.90
2022-09-28T06:44:17.734Z,24.00
2022-09-28T06:47:04.029Z,27.20
2022-09-28T06:49:55.884Z,27.00
2022-09-28T06:52:41.673Z,28.70
2022-09-28T06:55:25.225Z,27.60
2022-09-28T06:58:04.196Z,27.00
2022-09-28T07:00:34.435Z,29.40
2022-09-28T07:03:03.407Z,28.80
2022-09-28T07:05:52.854Z,25.40
2022-09-28T07:08:40.837Z,24.40
2022-09-28T07:11:27.250Z,20.50
2022-09-28T07:14:24.651Z,18.80
2022-09-28T07:17:12.633Z,18.20
2022-09-28T07:19:42.730Z,20.60
2022-09-28T07:22:18.572Z,19.10
2022-09-28T07:24:48.520Z,19.30
2022-09-28T07:27:57.845Z,17.50
2022-09-28T07:30:43.158Z,19.90
2022-09-28T07:33:15.959Z,19.10
2022-09-28T07:35:56.637Z,19.50
2022-09-28T07:38:28.157Z,18.10
2022-09-28T07:41:12.131Z,17.00
2022-09-28T07:43:51.082Z,16.30
2022-09-28T07:46:21.903Z,15.90
2022-09-28T07:48:56.992Z,14.90
2022-09-28T07:51:45.018Z,14.30
2022-09-28T07:54:23.924Z,14.70
2022-09-28T07:57:11.713Z,14.70
2022-09-28T07:59:51.166Z,14.40
2022-09-28T08:02:37.572Z,14.20
2022-09-28T08:05:05.635Z,13.70
2022-09-28T08:07:34.563Z,14.50
2022-09-28T08:10:06.106Z,14.40
2022-09-28T08:12:57.975Z,14.30
2022-09-28T08:15:51.600Z,14.70
2022-09-28T08:18:30.909Z,15.10
2022-09-28T08:21:17.176Z,14.70
2022-09-28T08:23:44.653Z,14.70
2022-09-28T08:26:15.375Z,14.10
2022-09-28T08:28:45.209Z,14.40
2022-09-28T08:31:48.499Z,14.10
2022-09-28T08:34:42.414Z,14.70
2022-09-28T08:37:22.692Z,16.70
2022-09-28T08:40:16.716Z,17.30
2022-09-28T08:43:00.121Z,17.40
2022-09-28T08:46:01.212Z,17.30
2022-09-28T08:49:13.432Z,17.80
2022-09-28T08:52:11.374Z,17.50
2022-09-28T08:55:12.756Z,16.60
2022-09-28T08:58:02.219Z,15.80
2022-09-28T09:00:34.337Z,16.00
2022-09-28T09:03:12.146Z,15.60
2022-09-28T09:06:00.606Z,15.20
2022-09-28T09:09:00.351Z,15.10
2022-09-28T09:11:47.144Z,14.50
2022-09-28T09:14:18.571Z,14.70
2022-09-28T09:16:49.818Z,14.30
2022-09-28T09:19:40.691Z,14.30
2022-09-28T09:22:18.202Z,14.20
2022-09-28T09:24:55.621Z,14.10
2022-09-28T09:27:27.941Z,13.90
2022-09-28T09:30:01.815Z,13.90
2022-09-28T09:32:32.477Z,14.30
2022-09-28T09:35:05.791Z,14.70
2022-09-28T09:38:02.186Z,14.50
2022-09-28T09:41:06.775Z,15.10
2022-09-28T09:44:18.958Z,18.00
2022-09-28T09:46:58.206Z,19.20
2022-09-28T09:50:11.710Z,19.10
2022-09-28T09:52:55.999Z,22.20
2022-09-28T09:55:29.988Z,24.60
2022-09-28T09:58:22.366Z,26.30
2022-09-28T10:01:01.607Z,27.00
2022-09-28T10:03:50.039Z,31.20
2022-09-28T10:06:26.771Z,31.40
2022-09-28T10:09:06.536Z,33.00
2022-09-28T10:11:42.661Z,31.50
2022-09-28T10:14:22.414Z,34.60
2022-09-28T10:17:02.388Z,32.30
2022-09-28T10:19:49.021Z,32.00
2022-09-28T10:22:29.015Z,35.00
2022-09-28T10:25:00.129Z,27.60
2022-09-28T10:27:29.911Z,28.70
2022-09-28T10:30:09.635Z,29.80
2022-09-28T10:32:41.698Z,32.00
2022-09-28T10:35:18.844Z,35.80
2022-09-28T10:37:55.345Z,30.90
2022-09-28T10:41:01.419Z,34.50
2022-09-28T10:44:09.068Z,39.00
2022-09-28T10:46:55.709Z,36.70
2022-09-28T10:49:25.173Z,40.60
2022-09-28T10:51:57.367Z,37.70
2022-09-28T10:54:32.808Z,33.90
2022-09-28T10:57:01.478Z,36.20
2022-09-28T10:59:49.408Z,36.20
2022-09-28T11:02:36.808Z,33.60
2022-09-28T11:05:21.434Z,28.70
2022-09-28T11:07:49.691Z,28.00
2022-09-28T11:10:25.211Z,33.20
2022-09-28T11:12:56.095Z,30.50
2022-09-28T11:15:31.543Z,26.80
2022-09-28T11:18:24.714Z,31.00
2022-09-28T11:20:52.621Z,29.30
2022-09-28T11:23:23.078Z,33.30
2022-09-28T11:25:59.505Z,33.80
2022-09-28T11:28:30.307Z,32.00
2022-09-28T11:31:00.567Z,36.40
2022-09-28T11:33:35.194Z,34.60
2022-09-28T11:36:43.402Z,34.10
2022-09-28T11:39:18.453Z,37.60
2022-09-28T11:41:52.230Z,36.20
2022-09-28T11:44:41.832Z,35.80
2022-09-28T11:47:20.059Z,37.30
2022-09-28T11:49:54.729Z,37.20
2022-09-28T11:52:22.592Z,36.00
2022-09-28T11:55:13.490Z,38.40
2022-09-28T11:57:43.110Z,37.30
2022-09-28T12:00:20.167Z,34.40
2022-09-28T12:02:51.621Z,33.00
2022-09-28T12:05:30.473Z,33.40
2022-09-28T12:08:17.401Z,32.70
2022-09-28T12:11:10.322Z,31.90
2022-09-28T12:14:20.581Z,32.70
2022-09-28T12:17:05.907Z,28.60
2022-09-28T12:19:35.384Z,26.60
2022-09-28T12:22:11.868Z,25.80
2022-09-28T12:24:42.636Z,26.90
2022-09-28T12:27:10.058Z,26.80
2022-09-28T12:29:47.835Z,25.90
2022-09-28T12:32:35.907Z,24.70
2022-09-28T12:35:10.990Z,24.00
2022-09-28T12:37:41.865Z,22.60
2022-09-28T12:40:18.772Z,22.00
2022-09-28T12:42:53.427Z,21.80
2022-09-28T12:45:23.916Z,20.80
2022-09-28T12:48:10.604Z,19.30
2022-09-28T12:50:56.090Z,18.80
2022-09-28T12:53:26.167Z,19.20
2022-09-28T12:56:01.205Z,18.80
2022-09-28T12:58:38.160Z,18.00
2022-09-28T13:01:05.971Z,17.80
2022-09-28T13:04:12.779Z,17.80
2022-09-28T13:07:07.076Z,17.50
2022-09-28T13:09:54.724Z,17.00
2022-09-28T13:12:23.164Z,16.70
2022-09-28T13:15:09.663Z,16.80
2022-09-28T13:17:38.286Z,16.90
2022-09-28T13:20:23.399Z,16.50
2022-09-28T13:23:02.585Z,16.10
2022-09-28T13:25:31.512Z,16.20
2022-09-28T13:28:01.469Z,15.90
2022-09-28T13:30:29.393Z,14.80
2022-09-28T13:32:57.862Z,14.90
2022-09-28T13:35:25.805Z,14.80
2022-09-28T13:38:12.482Z,15.20
2022-09-28T13:40:58.853Z,15.50
2022-09-28T13:43:43.401Z,15.10
2022-09-28T13:46:21.004Z,14.10
2022-09-28T13:48:54.410Z,14.40
2022-09-28T13:51:22.518Z,14.50
2022-09-28T13:53:56.116Z,14.50
2022-09-28T13:56:49.226Z,14.50
2022-09-28T13:59:19.891Z,14.80
2022-09-28T14:01:56.189Z,14.50
2022-09-28T14:04:25.739Z,14.20
2022-09-28T14:07:00.052Z,14.20
2022-09-28T14:09:40.701Z,14.10
2022-09-28T14:12:27.210Z,13.70
2022-09-28T14:14:55.150Z,13.80
2022-09-28T14:17:24.297Z,13.90
2022-09-28T14:19:53.341Z,13.90
2022-09-28T14:22:30.071Z,13.70
2022-09-28T14:25:17.829Z,13.40
2022-09-28T14:27:45.452Z,13.30
2022-09-28T14:30:12.793Z,13.60
2022-09-28T14:32:41.535Z,13.20
2022-09-28T14:35:18.873Z,13.10
2022-09-28T14:38:08.104Z,13.00
2022-09-28T14:41:10.343Z,13.10
2022-09-28T14:43:38.119Z,12.90
2022-09-28T14:46:11.909Z,12.90
2022-09-28T14:48:50.185Z,12.90
2022-09-28T14:51:26.983Z,12.80
2022-09-28T14:53:56.803Z,12.70
2022-09-28T14:56:26.162Z,12.80
2022-09-28T14:58:58.081Z,12.60
2022-09-28T15:01:26.066Z,12.70
2022-09-28T15:03:55.965Z,12.60
2022-09-28T15:06:24.436Z,12.50
2022-09-28T15:08:52.309Z,12.60
2022-09-28T15:11:24.543Z,12.60
2022-09-28T15:14:04.795Z,12.10
2022-09-28T15:16:32.650Z,12.30
2022-09-28T15:19:19.763Z,12.50
2022-09-28T15:21:49.190Z,12.50
2022-09-28T15:24:31.897Z,12.50
2022-09-28T15:27:00.235Z,12.20
2022-09-28T15:29:34.349Z,12.20
2022-09-28T15:32:02.104Z,12.20
2022-09-28T15:34:54.787Z,12.30
2022-09-28T15:37:28.351Z,12.40
2022-09-28T15:39:56.994Z,12.30
2022-09-28T15:42:25.382Z,12.20
2022-09-28T15:45:17.150Z,12.20
2022-09-28T15:47:45.380Z,12.00
2022-09-28T15:50:19.262Z,12.00
2022-09-28T15:53:04.395Z,11.90
2022-09-28T15:55:33.837Z,11.90
2022-09-28T15:58:18.258Z,11.90
2022-09-28T16:00:46.854Z,11.90
2022-09-28T16:03:17.196Z,11.90
2022-09-28T16:05:50.019Z,11.90
2022-09-28T16:08:24.293Z,11.90
2022-09-28T16:10:54.424Z,11.60
2022-09-28T16:13:24.068Z,11.60
2022-09-28T16:15:58.504Z,11.60
2022-09-28T16:18:26.865Z,11.60
2022-09-28T16:21:09.909Z,11.30
2022-09-28T16:23:37.812Z,11.20
2022-09-28T16:26:15.125Z,11.10
2022-09-28T16:28:46.225Z,11.30
2022-09-28T16:31:14.215Z,11.30
2022-09-28T16:33:55.445Z,11.40
2022-09-28T16:36:23.126Z,11.40
2022-09-28T16:38:51.101Z,11.10
2022-09-28T16:41:23.520Z,10.90
2022-09-28T16:43:55.775Z,10.90
2022-09-28T16:46:25.463Z,11.00
2022-09-28T16:48:54.143Z,11.00
2022-09-28T16:51:22.819Z,11.00
2022-09-28T16:54:09.244Z,10.90
2022-09-28T16:56:37.198Z,10.90
2022-09-28T16:59:04.901Z,11.00
2022-09-28T17:01:33.512Z,10.90
2022-09-28T17:04:01.070Z,10.80
2022-09-28T17:06:28.996Z,10.90
2022-09-28T17:08:59.592Z,11.00
2022-09-28T17:11:27.298Z,10.90
2022-09-28T17:13:59.209Z,10.90
2022-09-28T17:16:57.326Z,11.00
2022-09-28T17:19:18.574Z,10.80
2022-09-28T17:21:47.582Z,11.00
2022-09-28T17:24:15.633Z,11.10
2022-09-28T17:26:45.833Z,11.10
2022-09-28T17:29:14.974Z,11.10
2022-09-28T17:31:43.674Z,11.10
2022-09-28T17:34:12.461Z,11.10
2022-09-28T17:36:41.895Z,11.10
2022-09-28T17:39:11.767Z,11.20
2022-09-28T17:41:40.428Z,11.00
2022-09-28T17:44:08.446Z,10.90
2022-09-28T17:46:46.045Z,11.00
2022-09-28T17:49:14.295Z,10.70
2022-09-28T17:51:42.089Z,10.60
2022-09-28T17:54:09.895Z,10.80
2022-09-28T17:56:37.994Z,10.80
2022-09-28T17:59:07.517Z,10.80
2022-09-28T18:01:38.429Z,10.80
2022-09-28T18:04:08.482Z,10.80
2022-09-28T18:06:37.570Z,10.80
2022-09-28T18:09:06.260Z,10.80
2022-09-28T18:11:34.728Z,10.90
2022-09-28T18:14:02.570Z,10.80
2022-09-28T18:16:31.720Z,10.90
2022-09-28T18:19:00.064Z,10.70
2022-09-28T18:21:28.479Z,10.70
2022-09-28T18:23:55.883Z,10.70
2022-09-28T18:26:23.779Z,10.60
2022-09-28T18:28:54.809Z,10.60
2022-09-28T18:31:22.714Z,10.40
2022-09-28T18:33:50.417Z,10.60
2022-09-28T18:36:18.246Z,10.70
2022-09-28T18:38:46.240Z,10.60
2022-09-28T18:41:16.140Z,10.50
2022-09-28T18:43:49.222Z,10.60
2022-09-28T18:46:20.613Z,10.60
2022-09-28T18:48:48.893Z,10.70
2022-09-28T18:51:16.773Z,10.70
2022-09-28T18:53:44.708Z,10.80
2022-09-28T18:56:13.459Z,10.80
2022-09-28T18:58:41.819Z,10.60
2022-09-28T19:01:29.058Z,10.60
2022-09-28T19:04:02.257Z,10.60
2022-09-28T19:06:32.414Z,10.70
2022-09-28T19:09:01.618Z,10.70
2022-09-28T19:11:29.340Z,10.60
2022-09-28T19:13:56.975Z,10.60
2022-09-28T19:16:26.434Z,10.60
2022-09-28T19:18:54.341Z,10.50
2022-09-28T19:21:21.899Z,10.60
2022-09-28T19:23:50.183Z,10.60
2022-09-28T19:26:18.984Z,10.70
2022-09-28T19:28:46.895Z,10.60
2022-09-28T19:31:14.551Z,10.70
2022-09-28T19:33:44.971Z,10.70
2022-09-28T19:36:13.859Z,10.80
2022-09-28T19:38:42.489Z,10.70
2022-09-28T19:41:36.609Z,10.70
2022-09-28T19:44:08.985Z,10.70
2022-09-28T19:46:38.438Z,10.70
2022-09-28T19:49:10.953Z,10.70
2022-09-28T19:51:46.965Z,10.70
2022-09-28T19:54:33.092Z,10.80
2022-09-28T19:57:08.227Z,10.70
2022-09-28T19:59:36.778Z,10.70
2022-09-28T20:02:08.685Z,10.80
2022-09-28T20:04:36.484Z,10.70
2022-09-28T20:07:05.798Z,10.60
2022-09-28T20:09:33.464Z,10.70
2022-09-28T20:12:01.590Z,10.60
2022-09-28T20:14:33.048Z,10.60
2022-09-28T20:17:04.210Z,10.70
2022-09-28T20:19:31.681Z,10.80
2022-09-28T20:22:03.434Z,10.70
2022-09-28T20:24:31.645Z,10.80
2022-09-28T20:26:59.258Z,10.80
2022-09-28T20:29:26.863Z,10.70
2022-09-28T20:31:54.308Z,10.70
2022-09-28T20:34:21.758Z,10.80
2022-09-28T20:36:49.251Z,10.70
2022-09-28T20:39:17.266Z,10.40
2022-09-28T20:41:46.373Z,10.30
2022-09-28T20:44:14.335Z,10.40
2022-09-28T20:46:43.958Z,10.30
2022-09-28T20:49:11.549Z,10.30
2022-09-28T20:51:39.330Z,10.40
2022-09-28T20:54:07.251Z,10.50
2022-09-28T20:56:38.527Z,10.50
2022-09-28T20:59:10.664Z,10.50
2022-09-28T21:01:38.212Z,10.50
2022-09-28T21:04:07.059Z,10.50
2022-09-28T21:06:35.850Z,10.50
2022-09-28T21:09:04.247Z,10.40
2022-09-28T21:11:32.547Z,10.40
2022-09-28T21:14:02.186Z,10.40
2022-09-28T21:16:31.454Z,10.30
2022-09-28T21:18:59.382Z,10.30
2022-09-28T21:21:27.145Z,10.40
2022-09-28T21:23:58.063Z,10.50
2022-09-28T21:26:27.031Z,10.50
2022-09-28T21:28:58.402Z,10.40
2022-09-28T21:31:29.205Z,10.40
2022-09-28T21:33:57.448Z,10.30
2022-09-28T21:36:25.218Z,10.30
2022-09-28T21:38:53.956Z,10.50
2022-09-28T21:41:21.466Z,10.50
2022-09-28T21:43:49.072Z,10.50
2022-09-28T21:46:17.815Z,10.50
2022-09-28T21:48:45.899Z,10.50
2022-09-28T21:51:14.401Z,10.50
2022-09-28T21:53:43.028Z,10.60
2022-09-28T21:56:11.973Z,10.60
2022-09-28T21:58:40.345Z,10.50
2022-09-28T22:01:15.957Z,10.50
2022-09-28T22:03:47.620Z,10.30
2022-09-28T22:06:15.639Z,10.20
2022-09-28T22:08:43.094Z,10.20
2022-09-28T22:11:12.345Z,10.10
2022-09-28T22:13:41.349Z,10.20
2022-09-28T22:16:09.748Z,10.20
2022-09-28T22:18:37.330Z,10.30
2022-09-28T22:21:10.067Z,10.30
2022-09-28T22:23:38.229Z,10.40
2022-09-28T22:26:10.946Z,10.30
2022-09-28T22:28:39.323Z,10.30
2022-09-28T22:31:07.020Z,10.40
2022-09-28T22:33:34.665Z,10.40
2022-09-28T22:36:02.079Z,10.30
2022-09-28T22:38:31.161Z,10.30
2022-09-28T22:40:58.551Z,10.30
2022-09-28T22:43:27.089Z,10.20
2022-09-28T22:46:05.433Z,10.20
2022-09-28T22:48:33.151Z,10.30
2022-09-28T22:51:01.030Z,10.20
2022-09-28T22:53:28.813Z,10.30
2022-09-28T22:55:56.818Z,10.40
2022-09-28T22:58:24.408Z,10.50
2022-09-28T23:00:52.129Z,10.40
2022-09-28T23:03:19.471Z,10.50
2022-09-28T23:05:54.597Z,10.40
2022-09-28T23:08:22.704Z,10.40
2022-09-28T23:10:50.560Z,10.40
2022-09-28T23:13:18.796Z,10.30
2022-09-28T23:15:59.940Z,10.40
2022-09-28T23:18:28.590Z,10.30
2022-09-28T23:20:56.744Z,10.30
2022-09-28T23:23:24.272Z,10.40
2022-09-28T23:25:52.409Z,10.40
2022-09-28T23:28:20.917Z,10.40
2022-09-28T23:30:48.897Z,10.20
2022-09-28T23:33:16.972Z,10.20
2022-09-28T23:35:44.965Z,10.10
2022-09-28T23:38:17.982Z,10.10
2022-09-28T23:40:46.733Z,10.10
2022-09-28T23:43:14.663Z,10.10
2022-09-28T23:45:45.770Z,10.30
2022-09-28T23:48:15.378Z,10.30
2022-09-28T23:50:43.942Z,10.20
2022-09-28T23:53:12.309Z,10.10
2022-09-28T23:55:39.987Z,10.00
2022-09-28T23:58:07.609Z,10.10
